createdAt,value
2024-04-07T00:00:35.067Z,36.52
2024-04-07T00:01:39.921Z,36.54
2024-04-07T00:02:44.693Z,36.54
2024-04-07T00:03:47.877Z,36.51
2024-04-07T00:04:51.126Z,36.52
2024-04-07T00:05:57.497Z,36.53
2024-04-07T00:07:00.637Z,36.51
2024-04-07T00:08:03.877Z,36.51
2024-04-07T00:09:07.165Z,36.52
2024-04-07T00:10:10.397Z,36.52
2024-04-07T00:11:15.087Z,36.54
2024-04-07T00:12:19.870Z,36.52
2024-04-07T00:13:23.175Z,36.5
2024-04-07T00:14:26.432Z,36.52
2024-04-07T00:15:29.656Z,36.52
2024-04-07T00:16:32.939Z,36.52
2024-04-07T00:17:36.244Z,36.52
2024-04-07T00:18:39.624Z,36.52
2024-04-07T00:19:42.982Z,36.53
2024-04-07T00:20:46.323Z,36.51
2024-04-07T00:21:49.719Z,36.51
2024-04-07T00:22:52.986Z,36.53
2024-04-07T00:23:56.248Z,36.52
2024-04-07T00:24:59.547Z,36.52
2024-04-07T00:26:02.851Z,36.53
2024-04-07T00:27:06.158Z,36.53
2024-04-07T00:28:09.391Z,36.52
2024-04-07T00:29:12.747Z,36.53
2024-04-07T00:30:15.964Z,36.53
2024-04-07T00:31:19.243Z,36.53
2024-04-07T00:32:22.487Z,36.52
2024-04-07T00:33:25.712Z,36.51
2024-04-07T00:34:28.975Z,36.52
2024-04-07T00:35:32.309Z,36.52
2024-04-07T00:36:35.575Z,36.52
2024-04-07T00:37:39.022Z,36.53
2024-04-07T00:38:42.593Z,36.51
2024-04-07T00:39:45.942Z,36.52
2024-04-07T00:40:49.181Z,36.51
2024-04-07T00:41:54.012Z,36.52
2024-04-07T00:42:57.275Z,36.52
2024-04-07T00:44:00.524Z,36.49
2024-04-07T00:45:03.806Z,36.49
2024-04-07T00:46:07.042Z,36.51
2024-04-07T00:47:10.372Z,36.52
2024-04-07T00:48:13.651Z,36.51
2024-04-07T00:49:17.334Z,36.51
2024-04-07T00:50:20.626Z,36.5
2024-04-07T00:51:23.902Z,36.5
2024-04-07T00:52:27.128Z,36.52
2024-04-07T00:53:30.378Z,36.51
2024-04-07T00:54:33.661Z,36.49
2024-04-07T00:55:36.885Z,36.49
2024-04-07T00:56:41.703Z,36.51
2024-04-07T00:57:44.949Z,36.5
2024-04-07T00:58:49.768Z,36.48
2024-04-07T00:59:52.962Z,36.47
2024-04-07T01:00:56.085Z,36.47
2024-04-07T01:02:00.901Z,36.47
2024-04-07T01:03:04.147Z,36.45
2024-04-07T01:04:08.807Z,36.46
2024-04-07T01:05:12.097Z,36.45
2024-04-07T01:06:15.376Z,36.46
2024-04-07T01:07:18.657Z,36.46
2024-04-07T01:08:21.987Z,36.47
2024-04-07T01:09:25.262Z,36.45
2024-04-07T01:10:28.588Z,36.46
2024-04-07T01:11:33.397Z,36.46
2024-04-07T01:12:36.687Z,36.45
2024-04-07T01:13:40.060Z,36.44
2024-04-07T01:14:43.445Z,36.45
2024-04-07T01:15:46.719Z,36.46
2024-04-07T01:16:50.070Z,36.47
2024-04-07T01:17:55.430Z,36.47
2024-04-07T01:18:58.678Z,36.46
2024-04-07T01:20:01.926Z,36.43
2024-04-07T01:21:05.205Z,36.45
2024-04-07T01:22:08.441Z,36.46
2024-04-07T01:23:11.695Z,36.46
2024-04-07T01:24:15.075Z,36.47
2024-04-07T01:25:19.850Z,36.47
2024-04-07T01:26:24.615Z,36.45
2024-04-07T01:27:27.874Z,36.43
2024-04-07T01:28:31.126Z,36.44
2024-04-07T01:29:34.365Z,36.44
2024-04-07T01:30:37.631Z,36.46
2024-04-07T01:31:40.952Z,36.44
2024-04-07T01:32:44.241Z,36.45
2024-04-07T01:33:47.521Z,36.45
2024-04-07T01:34:50.737Z,36.48
2024-04-07T01:35:53.976Z,36.46
2024-04-07T01:36:57.327Z,36.47
2024-04-07T01:38:00.593Z,36.47
2024-04-07T01:39:03.899Z,36.49
2024-04-07T01:40:07.320Z,36.46
2024-04-07T01:41:10.632Z,36.46
2024-04-07T01:42:15.932Z,36.47
2024-04-07T01:43:19.155Z,36.46
2024-04-07T01:44:22.419Z,36.45
2024-04-07T01:45:25.693Z,36.44
2024-04-07T01:46:28.893Z,36.45
2024-04-07T01:47:32.317Z,36.45
2024-04-07T01:48:35.644Z,36.45
2024-04-07T01:49:38.898Z,36.46
2024-04-07T01:50:42.135Z,36.47
2024-04-07T01:51:45.542Z,36.46
2024-04-07T01:52:50.386Z,36.46
2024-04-07T01:53:53.595Z,36.45
2024-04-07T01:54:56.884Z,36.43
2024-04-07T01:56:00.150Z,36.43
2024-04-07T01:57:03.461Z,36.43
2024-04-07T01:58:06.769Z,36.46
2024-04-07T01:59:10.040Z,36.45
2024-04-07T02:00:13.331Z,36.45
2024-04-07T02:01:16.621Z,36.44
2024-04-07T02:02:19.804Z,36.45
2024-04-07T02:03:23.080Z,36.45
2024-04-07T02:04:27.898Z,36.47
2024-04-07T02:05:32.570Z,36.46
2024-04-07T02:06:37.800Z,36.43
2024-04-07T02:07:41.160Z,36.41
2024-04-07T02:08:44.532Z,36.41
2024-04-07T02:09:47.901Z,36.4
2024-04-07T02:10:51.218Z,36.42
2024-04-07T02:11:54.496Z,36.41
2024-04-07T02:12:59.336Z,36.44
2024-04-07T02:14:02.551Z,36.42
2024-04-07T02:15:05.749Z,36.44
2024-04-07T02:16:08.941Z,36.43
2024-04-07T02:17:12.225Z,36.45
2024-04-07T02:18:15.457Z,36.44
2024-04-07T02:19:18.719Z,36.45
2024-04-07T02:20:23.654Z,36.46
2024-04-07T02:21:26.864Z,36.45
2024-04-07T02:22:30.114Z,36.44
2024-04-07T02:23:33.446Z,36.44
2024-04-07T02:24:36.761Z,36.44
2024-04-07T02:25:40.049Z,36.45
2024-04-07T02:26:43.273Z,36.45
2024-04-07T02:27:46.562Z,36.47
2024-04-07T02:28:50.010Z,36.45
2024-04-07T02:29:53.410Z,36.47
2024-04-07T02:30:56.700Z,36.45
2024-04-07T02:31:59.935Z,36.45
2024-04-07T02:33:03.223Z,36.47
2024-04-07T02:34:06.547Z,36.47
2024-04-07T02:35:09.812Z,36.46
2024-04-07T02:36:13.186Z,36.47
2024-04-07T02:37:16.447Z,36.44
2024-04-07T02:38:19.766Z,36.46
2024-04-07T02:39:23.189Z,36.47
2024-04-07T02:40:26.535Z,36.47
2024-04-07T02:41:29.888Z,36.47
2024-04-07T02:42:34.708Z,36.45
2024-04-07T02:43:37.994Z,36.46
2024-04-07T02:44:41.331Z,36.44
2024-04-07T02:45:44.626Z,36.44
2024-04-07T02:46:47.920Z,36.46
2024-04-07T02:47:51.307Z,36.47
2024-04-07T02:48:56.039Z,36.46
2024-04-07T02:50:00.810Z,36.45
2024-04-07T02:51:04.100Z,36.44
2024-04-07T02:52:07.294Z,36.44
2024-04-07T02:53:10.605Z,36.46
2024-04-07T02:54:13.857Z,36.47
2024-04-07T02:55:17.130Z,36.47
2024-04-07T02:56:20.498Z,36.48
2024-04-07T02:57:25.326Z,36.48
2024-04-07T02:58:30.019Z,36.45
2024-04-07T02:59:33.272Z,36.46
2024-04-07T03:00:36.602Z,36.45
2024-04-07T03:01:39.808Z,36.45
2024-04-07T03:02:43.089Z,36.45
2024-04-07T03:03:46.446Z,36.46
2024-04-07T03:04:49.925Z,36.48
2024-04-07T03:05:53.172Z,36.48
2024-04-07T03:06:56.366Z,36.46
2024-04-07T03:08:01.108Z,36.48
2024-04-07T03:09:04.408Z,36.46
2024-04-07T03:10:07.754Z,36.46
2024-04-07T03:11:12.594Z,36.47
2024-04-07T03:12:15.895Z,36.47
2024-04-07T03:13:19.241Z,36.46
2024-04-07T03:14:22.595Z,36.47
2024-04-07T03:15:25.884Z,36.47
2024-04-07T03:16:29.224Z,36.48
2024-04-07T03:17:32.560Z,36.47
2024-04-07T03:18:35.908Z,36.48
2024-04-07T03:19:39.197Z,36.49
2024-04-07T03:20:42.419Z,36.5
2024-04-07T03:21:45.667Z,36.5
2024-04-07T03:22:49.025Z,36.5
2024-04-07T03:23:52.260Z,36.51
2024-04-07T03:24:55.595Z,36.51
2024-04-07T03:25:58.896Z,36.5
2024-04-07T03:27:02.194Z,36.51
2024-04-07T03:28:05.486Z,36.51
2024-04-07T03:29:08.772Z,36.49
2024-04-07T03:30:12.100Z,36.49
2024-04-07T03:31:17.439Z,36.51
2024-04-07T03:32:20.645Z,36.46
2024-04-07T03:33:23.948Z,36.45
2024-04-07T03:34:27.217Z,36.45
2024-04-07T03:35:30.465Z,36.45
2024-04-07T03:36:35.223Z,36.45
2024-04-07T03:37:39.908Z,36.45
2024-04-07T03:38:43.114Z,36.44
2024-04-07T03:39:47.819Z,36.45
2024-04-07T03:40:51.059Z,36.42
2024-04-07T03:41:56.262Z,36.42
2024-04-07T03:42:59.382Z,36.42
2024-04-07T03:44:02.756Z,36.43
2024-04-07T03:45:05.965Z,36.43
2024-04-07T03:46:09.215Z,36.47
2024-04-07T03:47:12.417Z,36.45
2024-04-07T03:48:15.751Z,36.46
2024-04-07T03:49:19.028Z,36.48
2024-04-07T03:50:22.377Z,36.49
2024-04-07T03:51:25.700Z,36.48
2024-04-07T03:52:28.930Z,36.48
2024-04-07T03:53:32.254Z,36.48
2024-04-07T03:54:37.036Z,36.47
2024-04-07T03:55:40.317Z,36.46
2024-04-07T03:56:45.057Z,36.47
2024-04-07T03:57:48.396Z,36.46
2024-04-07T03:58:51.755Z,36.44
2024-04-07T03:59:55.137Z,36.44
2024-04-07T04:00:58.462Z,36.47
2024-04-07T04:02:01.708Z,36.49
2024-04-07T04:03:04.935Z,36.46
2024-04-07T04:04:08.120Z,36.47
2024-04-07T04:05:11.273Z,36.49
2024-04-07T04:06:14.608Z,36.49
2024-04-07T04:07:17.922Z,36.49
2024-04-07T04:08:22.716Z,36.5
2024-04-07T04:09:25.976Z,36.49
2024-04-07T04:10:29.315Z,36.48
2024-04-07T04:11:32.573Z,36.48
2024-04-07T04:12:35.930Z,36.47
2024-04-07T04:13:40.732Z,36.49
2024-04-07T04:14:43.972Z,36.47
2024-04-07T04:15:47.255Z,36.46
2024-04-07T04:16:50.472Z,36.46
2024-04-07T04:17:53.700Z,36.47
2024-04-07T04:18:56.958Z,36.49
2024-04-07T04:20:00.193Z,36.47
2024-04-07T04:21:03.371Z,36.46
2024-04-07T04:22:06.608Z,36.48
2024-04-07T04:23:09.845Z,36.48
2024-04-07T04:24:14.720Z,36.49
2024-04-07T04:25:17.955Z,36.48
2024-04-07T04:26:21.080Z,36.47
2024-04-07T04:27:24.362Z,36.48
2024-04-07T04:28:27.644Z,36.48
2024-04-07T04:29:31.473Z,36.48
2024-04-07T04:30:34.727Z,36.48
2024-04-07T04:31:38.049Z,36.48
2024-04-07T04:32:41.283Z,36.48
2024-04-07T04:33:44.521Z,36.47
2024-04-07T04:34:47.999Z,36.49
2024-04-07T04:35:51.390Z,36.48
2024-04-07T04:36:54.750Z,36.49
2024-04-07T04:37:58.084Z,36.49
2024-04-07T04:39:01.299Z,36.49
2024-04-07T04:40:04.572Z,36.49
2024-04-07T04:41:07.910Z,36.5
2024-04-07T04:42:11.200Z,36.5
2024-04-07T04:43:14.485Z,36.52
2024-04-07T04:44:17.815Z,36.5
2024-04-07T04:45:21.086Z,36.5
2024-04-07T04:46:24.349Z,36.5
2024-04-07T04:47:27.652Z,36.51
2024-04-07T04:48:30.956Z,36.51
2024-04-07T04:49:34.286Z,36.51
2024-04-07T04:50:39.112Z,36.5
2024-04-07T04:51:42.323Z,36.49
2024-04-07T04:52:45.554Z,36.47
2024-04-07T04:53:48.851Z,36.49
2024-04-07T04:54:52.146Z,36.49
2024-04-07T04:55:55.487Z,36.5
2024-04-07T04:56:58.802Z,36.5
2024-04-07T04:58:02.088Z,36.51
2024-04-07T04:59:05.274Z,36.51
2024-04-07T05:00:08.583Z,36.5
2024-04-07T05:01:11.838Z,36.5
2024-04-07T05:02:15.135Z,36.5
2024-04-07T05:03:18.329Z,36.54
2024-04-07T05:04:21.524Z,36.54
2024-04-07T05:05:24.808Z,36.52
2024-04-07T05:06:28.130Z,36.51
2024-04-07T05:07:31.413Z,36.51
2024-04-07T05:08:34.732Z,36.51
2024-04-07T05:09:38.060Z,36.51
2024-04-07T05:10:41.454Z,36.51
2024-04-07T05:11:46.305Z,36.53
2024-04-07T05:12:49.632Z,36.53
2024-04-07T05:13:53.050Z,36.51
2024-04-07T05:14:56.474Z,36.51
2024-04-07T05:15:59.760Z,36.48
2024-04-07T05:17:04.508Z,36.49
2024-04-07T05:18:09.172Z,36.49
2024-04-07T05:19:14.078Z,36.48
2024-04-07T05:20:17.315Z,36.45
2024-04-07T05:21:20.585Z,36.46
2024-04-07T05:22:23.878Z,36.46
2024-04-07T05:23:27.212Z,36.46
2024-04-07T05:24:30.442Z,36.47
2024-04-07T05:25:34.162Z,36.49
2024-04-07T05:26:37.439Z,36.5
2024-04-07T05:27:40.727Z,36.52
2024-04-07T05:28:44.020Z,36.51
2024-04-07T05:29:47.235Z,36.5
2024-04-07T05:30:51.911Z,36.51
2024-04-07T05:31:55.334Z,36.5
2024-04-07T05:32:58.664Z,36.51
2024-04-07T05:34:01.939Z,36.51
2024-04-07T05:35:05.148Z,36.53
2024-04-07T05:36:08.452Z,36.51
2024-04-07T05:37:11.710Z,36.53
2024-04-07T05:38:15.061Z,36.53
2024-04-07T05:39:18.338Z,36.53
2024-04-07T05:40:21.623Z,36.53
2024-04-07T05:41:24.887Z,36.54
2024-04-07T05:42:28.138Z,36.51
2024-04-07T05:43:31.436Z,36.53
2024-04-07T05:44:34.651Z,36.52
2024-04-07T05:45:39.420Z,36.53
2024-04-07T05:46:42.664Z,36.48
2024-04-07T05:47:45.996Z,36.48
2024-04-07T05:48:49.902Z,36.49
2024-04-07T05:49:53.276Z,36.48
2024-04-07T05:50:58.475Z,36.49
2024-04-07T05:52:01.680Z,36.49
2024-04-07T05:53:04.855Z,36.47
2024-04-07T05:54:08.096Z,36.48
2024-04-07T05:55:11.350Z,36.49
2024-04-07T05:56:14.630Z,36.51
2024-04-07T05:57:17.943Z,36.53
2024-04-07T05:58:21.291Z,36.53
2024-04-07T05:59:24.570Z,36.52
2024-04-07T06:00:27.829Z,36.53
2024-04-07T06:01:31.113Z,36.53
2024-04-07T06:02:34.459Z,36.55
2024-04-07T06:03:39.271Z,36.54
2024-04-07T06:04:42.570Z,36.54
2024-04-07T06:05:47.345Z,36.52
2024-04-07T06:06:50.480Z,36.5
2024-04-07T06:07:53.844Z,36.5
2024-04-07T06:08:57.183Z,36.5
2024-04-07T06:10:00.500Z,36.5
2024-04-07T06:11:03.749Z,36.5
2024-04-07T06:12:06.975Z,36.54
2024-04-07T06:13:14.095Z,36.5
2024-04-07T06:14:21.844Z,36.44
2024-04-07T06:15:25.103Z,36.4
2024-04-07T06:16:28.372Z,36.38
2024-04-07T06:17:31.594Z,36.39
2024-04-07T06:18:36.475Z,36.44
2024-04-07T06:19:39.828Z,36.41
2024-04-07T06:20:43.132Z,36.41
2024-04-07T06:21:46.441Z,36.41
2024-04-07T06:22:49.644Z,36.42
2024-04-07T06:23:52.849Z,36.43
2024-04-07T06:24:56.197Z,36.43
2024-04-07T06:25:59.550Z,36.43
2024-04-07T06:27:04.374Z,36.46
2024-04-07T06:28:07.572Z,36.42
2024-04-07T06:29:10.828Z,36.42
2024-04-07T06:30:14.081Z,36.44
2024-04-07T06:31:17.403Z,36.43
2024-04-07T06:32:20.706Z,36.43
2024-04-07T06:33:23.970Z,36.41
2024-04-07T06:34:27.259Z,36.42
2024-04-07T06:35:30.544Z,36.4
2024-04-07T06:36:37.253Z,36.39
2024-04-07T06:37:40.470Z,36.37
2024-04-07T06:38:43.719Z,36.36
2024-04-07T06:39:48.538Z,36.37
2024-04-07T06:40:51.769Z,36.36
2024-04-07T06:41:55.063Z,36.34
2024-04-07T06:42:58.377Z,36.32
2024-04-07T06:44:01.721Z,36.35
2024-04-07T06:45:04.917Z,36.35
2024-04-07T06:46:08.099Z,36.35
2024-04-07T06:47:11.402Z,36.35
2024-04-07T06:48:16.198Z,36.37
2024-04-07T06:49:19.479Z,36.32
2024-04-07T06:50:22.896Z,36.3
2024-04-07T06:51:26.248Z,36.3
2024-04-07T06:52:29.489Z,36.29
2024-04-07T06:53:32.925Z,36.28
2024-04-07T06:54:36.226Z,36.29
2024-04-07T06:55:39.548Z,36.28
2024-04-07T06:56:42.829Z,36.26
2024-04-07T06:57:46.114Z,36.27
2024-04-07T06:58:49.363Z,36.24
2024-04-07T06:59:52.665Z,36.23
2024-04-07T07:00:55.937Z,36.26
2024-04-07T07:01:59.300Z,36.24
2024-04-07T07:03:02.671Z,36.24
2024-04-07T07:04:07.372Z,36.24
2024-04-07T07:05:10.602Z,36.22
2024-04-07T07:06:13.869Z,36.19
2024-04-07T07:07:17.270Z,36.14
2024-04-07T07:08:20.533Z,36.13
2024-04-07T07:09:23.839Z,36.11
2024-04-07T07:10:27.160Z,36.07
2024-04-07T07:11:31.915Z,36.08
2024-04-07T07:12:35.199Z,36.02
2024-04-07T07:13:38.500Z,36
2024-04-07T07:14:43.307Z,36
2024-04-07T07:15:46.541Z,36
2024-04-07T07:16:49.741Z,35.99
2024-04-07T07:17:52.909Z,36.02
2024-04-07T07:18:56.192Z,36.02
2024-04-07T07:20:01.094Z,36.02
2024-04-07T07:21:04.247Z,35.99
2024-04-07T07:22:09.066Z,35.92
2024-04-07T07:23:12.322Z,35.89
2024-04-07T07:24:15.615Z,35.88
2024-04-07T07:25:18.810Z,35.86
2024-04-07T07:26:22.065Z,35.87
2024-04-07T07:27:25.344Z,35.88
2024-04-07T07:28:28.647Z,35.91
2024-04-07T07:29:32.033Z,35.93
2024-04-07T07:30:35.412Z,35.93
2024-04-07T07:31:38.656Z,35.92
2024-04-07T07:32:41.967Z,35.95
2024-04-07T07:33:45.300Z,35.95
2024-04-07T07:34:48.551Z,35.95
2024-04-07T07:35:51.796Z,35.97
2024-04-07T07:36:55.061Z,35.95
2024-04-07T07:37:59.983Z,35.96
2024-04-07T07:39:03.331Z,35.96
2024-04-07T07:40:06.476Z,35.94
2024-04-07T07:41:09.765Z,35.93
2024-04-07T07:42:13.271Z,35.91
2024-04-07T07:43:16.511Z,35.9
2024-04-07T07:44:19.813Z,35.89
2024-04-07T07:45:23.112Z,35.91
2024-04-07T07:46:26.374Z,35.9
2024-04-07T07:47:29.700Z,35.92
2024-04-07T07:48:33.152Z,35.9
2024-04-07T07:49:36.365Z,35.91
2024-04-07T07:50:41.547Z,35.92
2024-04-07T07:51:44.734Z,35.9
2024-04-07T07:52:48.123Z,35.93
2024-04-07T07:53:51.314Z,35.9
2024-04-07T07:54:54.596Z,35.9
2024-04-07T07:55:57.937Z,35.9
2024-04-07T07:57:01.276Z,35.92
2024-04-07T07:58:04.409Z,35.91
2024-04-07T07:59:07.703Z,35.92
2024-04-07T08:00:22.919Z,35.94
2024-04-07T08:01:28.083Z,35.81
2024-04-07T08:02:31.563Z,35.8
2024-04-07T08:03:34.851Z,35.82
2024-04-07T08:04:38.151Z,35.84
2024-04-07T08:05:41.413Z,35.88
2024-04-07T08:06:46.114Z,35.91
2024-04-07T08:07:50.825Z,35.89
2024-04-07T08:08:53.994Z,35.9
2024-04-07T08:09:57.250Z,35.94
2024-04-07T08:11:00.639Z,35.94
2024-04-07T08:12:03.905Z,35.96
2024-04-07T08:13:08.702Z,35.96
2024-04-07T08:14:11.983Z,35.96
2024-04-07T08:15:15.264Z,35.97
2024-04-07T08:16:18.543Z,35.99
2024-04-07T08:17:21.947Z,36.02
2024-04-07T08:18:25.229Z,36.01
2024-04-07T08:19:28.506Z,36.03
2024-04-07T08:20:31.877Z,36.04
2024-04-07T08:21:35.184Z,36.03
2024-04-07T08:22:38.415Z,36.07
2024-04-07T08:23:41.695Z,36.07
2024-04-07T08:24:46.460Z,36.09
2024-04-07T08:25:49.629Z,36.07
2024-04-07T08:26:57.865Z,36.06
2024-04-07T08:28:02.637Z,36.02
2024-04-07T08:29:05.750Z,36.02
2024-04-07T08:30:08.946Z,36.01
2024-04-07T08:31:12.188Z,36.05
2024-04-07T08:32:15.427Z,36.04
2024-04-07T08:33:18.723Z,36.04
2024-04-07T08:34:22.048Z,36.08
2024-04-07T08:35:25.422Z,36.08
2024-04-07T08:36:28.747Z,36.08
2024-04-07T08:37:32.048Z,36.08
2024-04-07T08:38:35.862Z,36.08
2024-04-07T08:39:39.179Z,36.05
2024-04-07T08:40:42.487Z,36.06
2024-04-07T08:41:47.261Z,36.06
2024-04-07T08:42:50.461Z,36.04
2024-04-07T08:43:59.121Z,36.05
2024-04-07T08:45:02.530Z,35.98
2024-04-07T08:46:05.815Z,35.94
2024-04-07T08:47:09.018Z,35.99
2024-04-07T08:48:12.290Z,35.99
2024-04-07T08:49:15.549Z,36
2024-04-07T08:50:18.862Z,36
2024-04-07T08:51:22.108Z,36
2024-04-07T08:52:25.406Z,36
2024-04-07T08:53:28.839Z,35.97
2024-04-07T08:54:32.137Z,35.95
2024-04-07T08:55:35.412Z,35.95
2024-04-07T08:56:40.290Z,35.94
2024-04-07T08:57:43.571Z,35.93
2024-04-07T08:58:46.814Z,35.92
2024-04-07T08:59:50.133Z,35.94
2024-04-07T09:00:53.346Z,35.97
2024-04-07T09:01:56.692Z,35.97
2024-04-07T09:03:00.052Z,35.94
2024-04-07T09:04:03.301Z,35.94
2024-04-07T09:05:06.701Z,35.94
2024-04-07T09:06:10.287Z,35.94
2024-04-07T09:07:13.639Z,35.92
2024-04-07T09:08:16.926Z,35.96
2024-04-07T09:09:20.211Z,35.94
2024-04-07T09:10:23.481Z,35.91
2024-04-07T09:11:26.767Z,35.94
2024-04-07T09:12:30.048Z,35.97
2024-04-07T09:13:37.246Z,35.96
2024-04-07T09:14:40.509Z,35.92
2024-04-07T09:15:43.814Z,35.88
2024-04-07T09:16:47.077Z,35.88
2024-04-07T09:17:50.273Z,35.89
2024-04-07T09:18:53.554Z,35.89
2024-04-07T09:19:56.898Z,35.9
2024-04-07T09:21:00.301Z,35.93
2024-04-07T09:22:03.576Z,35.9
2024-04-07T09:23:06.804Z,35.91
2024-04-07T09:24:10.083Z,35.91
2024-04-07T09:25:13.447Z,35.9
2024-04-07T09:26:16.695Z,35.92
2024-04-07T09:27:21.454Z,35.91
2024-04-07T09:28:24.747Z,35.88
2024-04-07T09:29:28.030Z,35.9
2024-04-07T09:30:31.349Z,35.88
2024-04-07T09:31:34.686Z,35.9
2024-04-07T09:32:38.001Z,35.89
2024-04-07T09:33:41.329Z,35.9
2024-04-07T09:34:44.639Z,35.9
2024-04-07T09:35:49.333Z,35.9
2024-04-07T09:36:52.459Z,35.89
2024-04-07T09:37:55.852Z,35.88
2024-04-07T09:38:59.163Z,35.92
2024-04-07T09:40:02.484Z,35.91
2024-04-07T09:41:05.849Z,35.9
2024-04-07T09:42:09.158Z,35.92
2024-04-07T09:43:12.523Z,35.91
2024-04-07T09:44:15.792Z,35.92
2024-04-07T09:45:20.641Z,35.92
2024-04-07T09:46:23.924Z,35.93
2024-04-07T09:47:27.219Z,35.88
2024-04-07T09:48:31.890Z,35.93
2024-04-07T09:49:35.230Z,35.88
2024-04-07T09:50:38.493Z,35.89
2024-04-07T09:51:41.740Z,35.86
2024-04-07T09:52:45.023Z,35.86
2024-04-07T09:53:50.277Z,35.87
2024-04-07T09:54:53.487Z,35.85
2024-04-07T09:55:56.807Z,35.85
2024-04-07T09:57:00.160Z,35.87
2024-04-07T09:58:03.323Z,35.9
2024-04-07T09:59:06.590Z,35.92
2024-04-07T10:00:09.923Z,35.91
2024-04-07T10:01:13.219Z,35.9
2024-04-07T10:02:16.446Z,35.92
2024-04-07T10:03:19.676Z,35.89
2024-04-07T10:04:22.963Z,35.9
2024-04-07T10:05:28.216Z,35.9
2024-04-07T10:06:32.496Z,35.91
2024-04-07T10:07:37.257Z,35.88
2024-04-07T10:08:42.024Z,35.87
2024-04-07T10:09:45.293Z,35.87
2024-04-07T10:10:58.630Z,35.88
2024-04-07T10:12:07.828Z,35.74
2024-04-07T10:13:11.127Z,35.72
2024-04-07T10:14:14.424Z,35.71
2024-04-07T10:15:17.675Z,35.77
2024-04-07T10:16:20.893Z,35.82
2024-04-07T10:17:24.125Z,35.83
2024-04-07T10:18:27.392Z,35.86
2024-04-07T10:19:30.600Z,35.87
2024-04-07T10:20:33.875Z,35.86
2024-04-07T10:21:37.106Z,35.9
2024-04-07T10:22:40.570Z,35.91
2024-04-07T10:23:49.202Z,35.93
2024-04-07T10:24:52.430Z,35.86
2024-04-07T10:25:55.686Z,35.87
2024-04-07T10:26:58.973Z,35.87
2024-04-07T10:28:02.168Z,35.87
2024-04-07T10:29:05.420Z,35.9
2024-04-07T10:30:08.820Z,35.9
2024-04-07T10:31:12.085Z,35.93
2024-04-07T10:32:15.345Z,35.88
2024-04-07T10:33:18.566Z,35.93
2024-04-07T10:34:21.909Z,35.88
2024-04-07T10:35:25.177Z,35.9
2024-04-07T10:36:30.890Z,35.84
2024-04-07T10:37:34.147Z,35.81
2024-04-07T10:38:37.406Z,35.81
2024-04-07T10:39:40.697Z,35.79
2024-04-07T10:40:43.993Z,35.82
2024-04-07T10:41:47.319Z,35.81
2024-04-07T10:42:50.465Z,35.81
2024-04-07T10:43:53.704Z,35.84
2024-04-07T10:44:57.041Z,35.82
2024-04-07T10:46:01.323Z,35.81
2024-04-07T10:47:04.519Z,35.79
2024-04-07T10:48:07.947Z,35.77
2024-04-07T10:49:11.376Z,35.72
2024-04-07T10:50:14.740Z,35.7
2024-04-07T10:51:18.044Z,35.71
2024-04-07T10:52:21.298Z,35.7
2024-04-07T10:53:24.619Z,35.69
2024-04-07T10:54:27.875Z,35.69
2024-04-07T10:55:31.173Z,35.66
2024-04-07T10:56:34.427Z,35.69
2024-04-07T10:57:37.734Z,35.69
2024-04-07T10:58:41.034Z,35.7
2024-04-07T10:59:44.400Z,35.71
2024-04-07T11:00:47.688Z,35.73
2024-04-07T11:01:50.924Z,35.74
2024-04-07T11:02:54.180Z,35.75
2024-04-07T11:03:57.489Z,35.75
2024-04-07T11:05:00.769Z,35.73
2024-04-07T11:06:03.958Z,35.74
2024-04-07T11:07:07.294Z,35.75
2024-04-07T11:08:10.818Z,35.73
2024-04-07T11:09:14.097Z,35.72
2024-04-07T11:10:17.365Z,35.72
2024-04-07T11:11:20.680Z,35.69
2024-04-07T11:12:24.010Z,35.67
2024-04-07T11:13:27.216Z,35.66
2024-04-07T11:14:30.485Z,35.63
2024-04-07T11:15:33.772Z,35.63
2024-04-07T11:16:37.099Z,35.63
2024-04-07T11:17:44.585Z,35.61
2024-04-07T11:18:47.769Z,35.57
2024-04-07T11:19:50.892Z,35.57
2024-04-07T11:20:54.013Z,35.55
2024-04-07T11:21:57.331Z,35.53
2024-04-07T11:23:00.716Z,35.52
2024-04-07T11:24:04.003Z,35.53
2024-04-07T11:25:07.287Z,35.56
2024-04-07T11:26:10.710Z,35.57
2024-04-07T11:27:14.056Z,35.58
2024-04-07T11:28:17.322Z,35.6
2024-04-07T11:29:22.071Z,35.6
2024-04-07T11:30:25.297Z,35.61
2024-04-07T11:31:28.610Z,35.61
2024-04-07T11:32:31.973Z,35.62
2024-04-07T11:33:37.309Z,35.61
2024-04-07T11:34:40.514Z,35.6
2024-04-07T11:35:43.884Z,35.61
2024-04-07T11:36:47.152Z,35.62
2024-04-07T11:37:50.395Z,35.61
2024-04-07T11:38:55.202Z,35.61
2024-04-07T11:39:58.447Z,35.59
2024-04-07T11:41:01.666Z,35.6
2024-04-07T11:42:04.852Z,35.6
2024-04-07T11:43:08.229Z,35.61
2024-04-07T11:44:11.524Z,35.6
2024-04-07T11:45:16.864Z,35.6
2024-04-07T11:46:20.116Z,35.59
2024-04-07T11:47:23.388Z,35.59
2024-04-07T11:48:26.690Z,35.62
2024-04-07T11:49:29.911Z,35.61
2024-04-07T11:50:34.724Z,35.63
2024-04-07T11:51:37.995Z,35.64
2024-04-07T11:52:41.219Z,35.63
2024-04-07T11:53:44.464Z,35.63
2024-04-07T11:54:49.628Z,35.64
2024-04-07T11:55:54.283Z,35.63
2024-04-07T11:56:57.441Z,35.62
2024-04-07T11:58:00.642Z,35.61
2024-04-07T11:59:03.839Z,35.63
2024-04-07T12:00:07.222Z,35.64
2024-04-07T12:01:10.464Z,35.64
2024-04-07T12:02:13.747Z,35.66
2024-04-07T12:03:17.014Z,35.67
2024-04-07T12:04:20.308Z,35.68
2024-04-07T12:05:23.599Z,35.67
2024-04-07T12:06:28.382Z,35.67
2024-04-07T12:07:31.644Z,35.64
2024-04-07T12:08:34.939Z,35.64
2024-04-07T12:09:38.242Z,35.62
2024-04-07T12:10:41.523Z,35.6
2024-04-07T12:11:44.819Z,35.55
2024-04-07T12:12:48.035Z,35.54
2024-04-07T12:13:51.288Z,35.55
2024-04-07T12:14:54.536Z,35.54
2024-04-07T12:15:57.831Z,35.54
2024-04-07T12:17:01.134Z,35.52
2024-04-07T12:18:04.386Z,35.5
2024-04-07T12:19:09.709Z,35.45
2024-04-07T12:20:12.887Z,35.43
2024-04-07T12:21:16.226Z,35.42
2024-04-07T12:22:21.018Z,35.4
2024-04-07T12:23:24.237Z,35.41
2024-04-07T12:24:27.500Z,35.41
2024-04-07T12:25:30.757Z,35.37
2024-04-07T12:26:34.074Z,35.39
2024-04-07T12:27:37.353Z,35.39
2024-04-07T12:28:40.632Z,35.39
2024-04-07T12:29:43.927Z,35.4
2024-04-07T12:30:47.183Z,35.42
2024-04-07T12:31:50.460Z,35.44
2024-04-07T12:32:53.736Z,35.44
2024-04-07T12:33:57.058Z,35.42
2024-04-07T12:35:00.378Z,35.42
2024-04-07T12:36:03.738Z,35.4
2024-04-07T12:37:07.035Z,35.4
2024-04-07T12:38:10.336Z,35.42
2024-04-07T12:39:13.741Z,35.4
2024-04-07T12:40:17.069Z,35.41
2024-04-07T12:41:20.445Z,35.42
2024-04-07T12:42:23.700Z,35.43
2024-04-07T12:43:28.500Z,35.45
2024-04-07T12:44:31.718Z,35.44
2024-04-07T12:45:34.974Z,35.44
2024-04-07T12:46:38.224Z,35.43
2024-04-07T12:47:41.575Z,35.44
2024-04-07T12:48:44.920Z,35.45
2024-04-07T12:49:48.173Z,35.47
2024-04-07T12:50:51.487Z,35.45
2024-04-07T12:51:54.821Z,35.47
2024-04-07T12:52:58.053Z,35.46
2024-04-07T12:54:01.333Z,35.45
2024-04-07T12:55:04.597Z,35.45
2024-04-07T12:56:07.816Z,35.47
2024-04-07T12:57:11.129Z,35.46
2024-04-07T12:58:14.437Z,35.48
2024-04-07T12:59:17.643Z,35.49
2024-04-07T13:00:20.989Z,35.52
2024-04-07T13:01:24.290Z,35.51
2024-04-07T13:02:27.531Z,35.53
2024-04-07T13:03:30.857Z,35.53
2024-04-07T13:04:35.627Z,35.53
2024-04-07T13:05:38.886Z,35.51
2024-04-07T13:06:42.196Z,35.52
2024-04-07T13:07:45.482Z,35.52
2024-04-07T13:08:48.662Z,35.52
2024-04-07T13:09:51.962Z,35.53
2024-04-07T13:10:55.203Z,35.52
2024-04-07T13:12:03.527Z,35.52
2024-04-07T13:13:06.793Z,35.49
2024-04-07T13:14:10.174Z,35.48
2024-04-07T13:15:13.704Z,35.49
2024-04-07T13:16:17.007Z,35.51
2024-04-07T13:17:21.810Z,35.52
2024-04-07T13:18:25.011Z,35.51
2024-04-07T13:19:28.304Z,35.51
2024-04-07T13:20:31.608Z,35.53
2024-04-07T13:21:34.868Z,35.55
2024-04-07T13:22:38.137Z,35.56
2024-04-07T13:23:41.372Z,35.57
2024-04-07T13:24:48.017Z,35.58
2024-04-07T13:25:51.271Z,35.55
2024-04-07T13:26:54.587Z,35.55
2024-04-07T13:27:57.884Z,35.57
2024-04-07T13:29:03.111Z,35.58
2024-04-07T13:30:06.414Z,35.55
2024-04-07T13:31:09.679Z,35.52
2024-04-07T13:32:13.106Z,35.52
2024-04-07T13:33:16.547Z,35.52
2024-04-07T13:34:19.942Z,35.53
2024-04-07T13:35:23.334Z,35.52
2024-04-07T13:36:26.651Z,35.51
2024-04-07T13:37:29.947Z,35.52
2024-04-07T13:38:33.287Z,35.53
2024-04-07T13:39:36.563Z,35.53
2024-04-07T13:40:39.825Z,35.53
2024-04-07T13:41:43.095Z,35.54